sensor_id;sensor_type;location;lat;lon;timestamp;pressure;altitude;pressure_sealevel;temperature;humidity
7962;BME280;4026;43.652;24.906;2022-11-23T00:01:52;97956.53;;;7.54;100.00
7962;BME280;4026;43.652;24.906;2022-11-23T00:04:19;97941.63;;;7.49;100.00
7962;BME280;4026;43.652;24.906;2022-11-23T00:06:48;97945.66;;;7.52;100.00
7962;BME280;4026;43.652;24.906;2022-11-23T00:09:14;97944.28;;;7.47;100.00
7962;BME280;4026;43.652;24.906;2022-11-23T00:11:41;97947.50;;;7.49;100.00
7962;BME280;4026;43.652;24.906;2022-11-23T00:14:08;97946.94;;;7.46;100.00
7962;BME280;4026;43.652;24.906;2022-11-23T00:16:35;97949.16;;;7.51;100.00
7962;BME280;4026;43.652;24.906;2022-11-23T00:19:02;97949.16;;;7.51;100.00
7962;BME280;4026;43.652;24.906;2022-11-23T00:21:30;97954.69;;;7.44;100.00
7962;BME280;4026;43.652;24.906;2022-11-23T00:23:58;97945.34;;;7.45;100.00
7962;BME280;4026;43.652;24.906;2022-11-23T00:26:25;97942.91;;;7.43;100.00
7962;BME280;4026;43.652;24.906;2022-11-23T00:28:52;97947.03;;;7.56;100.00
7962;BME280;4026;43.652;24.906;2022-11-23T00:31:19;97949.16;;;7.39;100.00
7962;BME280;4026;43.652;24.906;2022-11-23T00:33:50;97932.72;;;7.43;100.00
7962;BME280;4026;43.652;24.906;2022-11-23T00:36:18;97948.53;;;7.58;100.00
7962;BME280;4026;43.652;24.906;2022-11-23T00:38:45;97936.06;;;7.55;100.00
7962;BME280;4026;43.652;24.906;2022-11-23T00:41:16;97940.81;;;7.48;100.00
7962;BME280;4026;43.652;24.906;2022-11-23T00:43:43;97940.84;;;7.37;100.00
7962;BME280;4026;43.652;24.906;2022-11-23T00:46:12;97949.47;;;7.57;100.00
7962;BME280;4026;43.652;24.906;2022-11-23T00:48:40;97928.34;;;7.45;100.00
7962;BME280;4026;43.652;24.906;2022-11-23T00:51:09;97911.81;;;7.40;100.00
7962;BME280;4026;43.652;24.906;2022-11-23T00:53:36;97908.44;;;7.51;100.00
7962;BME280;4026;43.652;24.906;2022-11-23T00:56:04;97913.19;;;7.44;100.00
7962;BME280;4026;43.652;24.906;2022-11-23T00:58:32;97918.28;;;7.44;100.00
7962;BME280;4026;43.652;24.906;2022-11-23T01:01:02;97920.50;;;7.37;100.00
7962;BME280;4026;43.652;24.906;2022-11-23T01:03:29;97925.94;;;7.33;100.00
7962;BME280;4026;43.652;24.906;2022-11-23T01:06:01;97927.00;;;7.30;100.00
7962;BME280;4026;43.652;24.906;2022-11-23T01:08:28;97924.41;;;7.41;100.00
7962;BME280;4026;43.652;24.906;2022-11-23T01:10:58;97921.44;;;7.36;100.00
7962;BME280;4026;43.652;24.906;2022-11-23T01:13:25;97910.44;;;7.36;100.00
7962;BME280;4026;43.652;24.906;2022-11-23T01:15:53;97903.03;;;7.33;100.00
7962;BME280;4026;43.652;24.906;2022-11-23T01:18:20;97899.47;;;7.35;100.00
7962;BME280;4026;43.652;24.906;2022-11-23T01:20:47;97896.50;;;7.30;100.00
7962;BME280;4026;43.652;24.906;2022-11-23T01:23:14;97895.41;;;7.33;100.00
7962;BME280;4026;43.652;24.906;2022-11-23T01:25:40;97884.78;;;7.39;100.00
7962;BME280;4026;43.652;24.906;2022-11-23T01:28:07;97887.44;;;7.37;100.00
7962;BME280;4026;43.652;24.906;2022-11-23T01:30:34;97888.13;;;7.39;100.00
7962;BME280;4026;43.652;24.906;2022-11-23T01:33:03;97888.81;;;7.41;100.00
7962;BME280;4026;43.652;24.906;2022-11-23T01:35:30;97892.28;;;7.40;100.00
7962;BME280;4026;43.652;24.906;2022-11-23T01:37:57;97888.81;;;7.41;100.00
7962;BME280;4026;43.652;24.906;2022-11-23T01:40:24;97882.91;;;7.41;100.00
7962;BME280;4026;43.652;24.906;2022-11-23T01:42:53;97879.13;;;7.35;100.00
7962;BME280;4026;43.652;24.906;2022-11-23T01:45:36;97871.16;;;7.40;100.00
7962;BME280;4026;43.652;24.906;2022-11-23T01:48:09;97862.72;;;7.39;100.00
7962;BME280;4026;43.652;24.906;2022-11-23T01:50:38;97859.22;;;7.40;100.00
7962;BME280;4026;43.652;24.906;2022-11-23T01:53:06;97870.34;;;7.39;100.00
7962;BME280;4026;43.652;24.906;2022-11-23T01:55:33;97864.78;;;7.45;100.00
7962;BME280;4026;43.652;24.906;2022-11-23T01:58:01;97868.47;;;7.41;100.00
7962;BME280;4026;43.652;24.906;2022-11-23T02:00:28;97861.47;;;7.34;100.00
7962;BME280;4026;43.652;24.906;2022-11-23T02:02:56;97866.59;;;7.55;100.00
7962;BME280;4026;43.652;24.906;2022-11-23T02:05:31;97863.84;;;7.46;100.00
7962;BME280;4026;43.652;24.906;2022-11-23T02:07:59;97858.28;;;7.41;100.00
7962;BME280;4026;43.652;24.906;2022-11-23T02:10:28;97853.94;;;7.32;100.00
7962;BME280;4026;43.652;24.906;2022-11-23T02:13:00;97856.00;;;7.38;100.00
7962;BME280;4026;43.652;24.906;2022-11-23T02:15:27;97852.66;;;7.38;100.00
7962;BME280;4026;43.652;24.906;2022-11-23T02:17:55;97843.03;;;7.41;100.00
7962;BME280;4026;43.652;24.906;2022-11-23T02:20:22;97844.91;;;7.39;100.00
7962;BME280;4026;43.652;24.906;2022-11-23T02:22:58;97854.59;;;7.45;100.00
7962;BME280;4026;43.652;24.906;2022-11-23T02:25:33;97848.72;;;7.45;100.00
7962;BME280;4026;43.652;24.906;2022-11-23T02:28:03;97843.38;;;7.48;100.00
7962;BME280;4026;43.652;24.906;2022-11-23T02:30:32;97841.50;;;7.50;100.00
7962;BME280;4026;43.652;24.906;2022-11-23T02:33:02;97848.22;;;7.51;100.00
7962;BME280;4026;43.652;24.906;2022-11-23T02:35:30;97843.69;;;7.55;100.00
7962;BME280;4026;43.652;24.906;2022-11-23T02:37:58;97840.44;;;7.53;100.00
7962;BME280;4026;43.652;24.906;2022-11-23T02:40:28;97838.28;;;7.48;100.00
7962;BME280;4026;43.652;24.906;2022-11-23T02:42:57;97831.00;;;7.43;100.00
7962;BME280;4026;43.652;24.906;2022-11-23T02:45:32;97833.75;;;7.52;100.00
7962;BME280;4026;43.652;24.906;2022-11-23T02:48:01;97830.97;;;7.55;100.00
7962;BME280;4026;43.652;24.906;2022-11-23T02:50:29;97836.50;;;7.60;100.00
7962;BME280;4026;43.652;24.906;2022-11-23T02:52:56;97838.59;;;7.55;100.00
7962;BME280;4026;43.652;24.906;2022-11-23T02:55:23;97840.22;;;7.56;100.00
7962;BME280;4026;43.652;24.906;2022-11-23T02:57:49;97830.53;;;7.49;100.00
7962;BME280;4026;43.652;24.906;2022-11-23T03:00:17;97825.69;;;7.46;100.00
7962;BME280;4026;43.652;24.906;2022-11-23T03:02:45;97830.28;;;7.53;100.00
7962;BME280;4026;43.652;24.906;2022-11-23T03:05:12;97835.59;;;7.49;100.00
7962;BME280;4026;43.652;24.906;2022-11-23T03:07:38;97840.66;;;7.61;100.00
7962;BME280;4026;43.652;24.906;2022-11-23T03:10:07;97844.50;;;7.55;100.00
7962;BME280;4026;43.652;24.906;2022-11-23T03:12:34;97845.28;;;7.56;100.00
7962;BME280;4026;43.652;24.906;2022-11-23T03:15:01;97838.72;;;7.53;100.00
7962;BME280;4026;43.652;24.906;2022-11-23T03:17:27;97838.97;;;7.50;100.00
7962;BME280;4026;43.652;24.906;2022-11-23T03:19:56;97836.09;;;7.43;100.00
7962;BME280;4026;43.652;24.906;2022-11-23T03:22:22;97842.53;;;7.47;100.00
7962;BME280;4026;43.652;24.906;2022-11-23T03:24:49;97845.81;;;7.38;100.00
7962;BME280;4026;43.652;24.906;2022-11-23T03:27:16;97853.41;;;7.49;100.00
7962;BME280;4026;43.652;24.906;2022-11-23T03:29:43;97849.81;;;7.52;100.00
7962;BME280;4026;43.652;24.906;2022-11-23T03:32:10;97848.03;;;7.64;100.00
7962;BME280;4026;43.652;24.906;2022-11-23T03:34:37;97851.28;;;7.66;100.00
7962;BME280;4026;43.652;24.906;2022-11-23T03:37:05;97841.34;;;7.63;100.00
7962;BME280;4026;43.652;24.906;2022-11-23T03:39:32;97844.00;;;7.61;100.00
7962;BME280;4026;43.652;24.906;2022-11-23T03:41:58;97852.69;;;7.59;100.00
7962;BME280;4026;43.652;24.906;2022-11-23T03:44:25;97853.63;;;7.58;100.00
7962;BME280;4026;43.652;24.906;2022-11-23T03:46:52;97859.69;;;7.45;100.00
7962;BME280;4026;43.652;24.906;2022-11-23T03:49:19;97858.06;;;7.44;100.00
7962;BME280;4026;43.652;24.906;2022-11-23T03:51:45;97849.25;;;7.48;100.00
7962;BME280;4026;43.652;24.906;2022-11-23T03:54:14;97855.97;;;7.49;100.00
7962;BME280;4026;43.652;24.906;2022-11-23T03:56:40;97853.78;;;7.45;100.00
7962;BME280;4026;43.652;24.906;2022-11-23T03:59:07;97845.81;;;7.38;100.00
7962;BME280;4026;43.652;24.906;2022-11-23T04:01:34;97853.44;;;7.38;100.00
7962;BME280;4026;43.652;24.906;2022-11-23T04:04:01;97849.53;;;7.34;100.00
7962;BME280;4026;43.652;24.906;2022-11-23T04:06:27;97841.91;;;7.34;100.00
7962;BME280;4026;43.652;24.906;2022-11-23T04:08:55;97841.44;;;7.40;100.00
7962;BME280;4026;43.652;24.906;2022-11-23T04:11:23;97836.59;;;7.37;100.00
7962;BME280;4026;43.652;24.906;2022-11-23T04:13:49;97847.00;;;7.34;100.00
7962;BME280;4026;43.652;24.906;2022-11-23T04:16:16;97833.59;;;7.32;100.00
7962;BME280;4026;43.652;24.906;2022-11-23T04:18:43;97823.81;;;7.28;100.00
7962;BME280;4026;43.652;24.906;2022-11-23T04:21:10;97825.66;;;7.25;100.00
7962;BME280;4026;43.652;24.906;2022-11-23T04:23:36;97827.25;;;7.26;100.00
7962;BME280;4026;43.652;24.906;2022-11-23T04:26:03;97827.16;;;7.28;100.00
7962;BME280;4026;43.652;24.906;2022-11-23T04:28:31;97824.97;;;7.23;100.00
7962;BME280;4026;43.652;24.906;2022-11-23T04:30:58;97825.75;;;7.24;100.00
7962;BME280;4026;43.652;24.906;2022-11-23T04:33:25;97824.41;;;7.20;100.00
7962;BME280;4026;43.652;24.906;2022-11-23T04:35:52;97825.69;;;7.14;100.00
7962;BME280;4026;43.652;24.906;2022-11-23T04:38:18;97829.72;;;7.17;100.00
7962;BME280;4026;43.652;24.906;2022-11-23T04:40:46;97819.34;;;7.09;100.00
7962;BME280;4026;43.652;24.906;2022-11-23T04:43:13;97822.31;;;7.25;100.00
7962;BME280;4026;43.652;24.906;2022-11-23T04:45:42;97826.00;;;7.21;100.00
7962;BME280;4026;43.652;24.906;2022-11-23T04:48:08;97828.44;;;7.22;100.00
7962;BME280;4026;43.652;24.906;2022-11-23T04:50:35;97841.75;;;7.15;100.00
7962;BME280;4026;43.652;24.906;2022-11-23T04:53:03;97836.66;;;7.15;100.00
7962;BME280;4026;43.652;24.906;2022-11-23T04:55:29;97840.25;;;7.12;100.00
7962;BME280;4026;43.652;24.906;2022-11-23T04:57:56;97841.19;;;7.11;100.00
7962;BME280;4026;43.652;24.906;2022-11-23T05:00:23;97831.53;;;7.26;100.00
7962;BME280;4026;43.652;24.906;2022-11-23T05:02:51;97821.38;;;7.26;100.00
7962;BME280;4026;43.652;24.906;2022-11-23T05:05:18;97811.66;;;7.31;100.00
7962;BME280;4026;43.652;24.906;2022-11-23T05:07:45;97819.28;;;7.31;100.00
7962;BME280;4026;43.652;24.906;2022-11-23T05:10:12;97822.88;;;7.29;100.00
7962;BME280;4026;43.652;24.906;2022-11-23T05:12:38;97813.91;;;7.13;100.00
7962;BME280;4026;43.652;24.906;2022-11-23T05:15:06;97815.34;;;7.27;100.00
7962;BME280;4026;43.652;24.906;2022-11-23T05:17:33;97821.38;;;7.26;100.00
7962;BME280;4026;43.652;24.906;2022-11-23T05:20:01;97829.00;;;7.26;100.00
7962;BME280;4026;43.652;24.906;2022-11-23T05:22:28;97845.84;;;7.27;100.00
7962;BME280;4026;43.652;24.906;2022-11-23T05:24:55;97842.16;;;7.31;100.00
7962;BME280;4026;43.652;24.906;2022-11-23T05:27:22;97845.41;;;7.33;100.00
7962;BME280;4026;43.652;24.906;2022-11-23T05:29:49;97844.47;;;7.34;100.00
7962;BME280;4026;43.652;24.906;2022-11-23T05:32:15;97840.88;;;7.37;100.00
7962;BME280;4026;43.652;24.906;2022-11-23T05:34:42;97834.50;;;7.42;100.00
7962;BME280;4026;43.652;24.906;2022-11-23T05:37:10;97833.69;;;7.42;100.00
7962;BME280;4026;43.652;24.906;2022-11-23T05:39:37;97837.28;;;7.39;100.00
7962;BME280;4026;43.652;24.906;2022-11-23T05:42:04;97838.19;;;7.38;100.00
7962;BME280;4026;43.652;24.906;2022-11-23T05:44:31;97847.25;;;7.31;100.00
7962;BME280;4026;43.652;24.906;2022-11-23T05:46:58;97852.41;;;7.41;100.00
7962;BME280;4026;43.652;24.906;2022-11-23T05:49:25;97859.69;;;7.45;100.00
7962;BME280;4026;43.652;24.906;2022-11-23T05:51:51;97858.06;;;7.44;100.00
7962;BME280;4026;43.652;24.906;2022-11-23T05:54:20;97863.13;;;7.44;100.00
7962;BME280;4026;43.652;24.906;2022-11-23T05:56:47;97871.94;;;7.40;100.00
7962;BME280;4026;43.652;24.906;2022-11-23T05:59:13;97873.41;;;7.54;100.00
7962;BME280;4026;43.652;24.906;2022-11-23T06:01:40;97878.16;;;7.47;100.00
7962;BME280;4026;43.652;24.906;2022-11-23T06:04:07;97873.78;;;7.38;100.00
7962;BME280;4026;43.652;24.906;2022-11-23T06:06:34;97875.84;;;7.44;100.00
7962;BME280;4026;43.652;24.906;2022-11-23T06:09:01;97879.78;;;7.48;100.00
7962;BME280;4026;43.652;24.906;2022-11-23T06:11:29;97881.16;;;7.53;100.00
7962;BME280;4026;43.652;24.906;2022-11-23T06:13:57;97886.72;;;7.46;100.00
7962;BME280;4026;43.652;24.906;2022-11-23T06:16:23;97891.81;;;7.46;100.00
7962;BME280;4026;43.652;24.906;2022-11-23T06:18:50;97890.69;;;7.39;100.00
7962;BME280;4026;43.652;24.906;2022-11-23T06:21:17;97903.88;;;7.33;100.00
7962;BME280;4026;43.652;24.906;2022-11-23T06:23:46;97901.72;;;7.49;100.00
7962;BME280;4026;43.652;24.906;2022-11-23T06:26:12;97900.75;;;7.62;100.00
7962;BME280;4026;43.652;24.906;2022-11-23T06:28:41;97888.97;;;7.61;100.00
7962;BME280;4026;43.652;24.906;2022-11-23T06:31:08;97887.41;;;7.48;100.00
7962;BME280;4026;43.652;24.906;2022-11-23T06:33:35;97875.81;;;7.56;100.00
7962;BME280;4026;43.652;24.906;2022-11-23T06:36:02;97877.44;;;7.57;100.00
7962;BME280;4026;43.652;24.906;2022-11-23T06:38:29;97879.78;;;7.48;100.00
7962;BME280;4026;43.652;24.906;2022-11-23T06:40:57;97893.06;;;7.52;100.00
7962;BME280;4026;43.652;24.906;2022-11-23T06:43:24;97894.56;;;7.55;100.00
7962;BME280;4026;43.652;24.906;2022-11-23T06:45:52;97878.59;;;7.53;100.00
7962;BME280;4026;43.652;24.906;2022-11-23T06:48:19;97880.69;;;7.47;100.00
7962;BME280;4026;43.652;24.906;2022-11-23T06:50:46;97887.03;;;7.53;100.00
7962;BME280;4026;43.652;24.906;2022-11-23T06:53:13;97896.53;;;7.51;100.00
7962;BME280;4026;43.652;24.906;2022-11-23T06:55:40;97897.31;;;7.63;100.00
7962;BME280;4026;43.652;24.906;2022-11-23T06:58:07;97902.94;;;7.66;100.00
7962;BME280;4026;43.652;24.906;2022-11-23T07:00:34;97891.78;;;7.79;100.00
7962;BME280;4026;43.652;24.906;2022-11-23T07:03:03;97891.34;;;7.74;100.00
7962;BME280;4026;43.652;24.906;2022-11-23T07:05:31;97887.19;;;7.72;100.00
7962;BME280;4026;43.652;24.906;2022-11-23T07:07:57;97887.25;;;7.82;100.00
7962;BME280;4026;43.652;24.906;2022-11-23T07:10:24;97881.47;;;7.91;100.00
7962;BME280;4026;43.652;24.906;2022-11-23T07:12:51;97886.28;;;7.94;100.00
7962;BME280;4026;43.652;24.906;2022-11-23T07:15:18;97887.28;;;8.03;100.00
7962;BME280;4026;43.652;24.906;2022-11-23T07:17:45;97891.06;;;7.88;100.00
7962;BME280;4026;43.652;24.906;2022-11-23T07:20:13;97893.28;;;8.02;100.00
7962;BME280;4026;43.652;24.906;2022-11-23T07:22:40;97885.31;;;8.07;100.00
7962;BME280;4026;43.652;24.906;2022-11-23T07:25:07;97880.47;;;8.04;100.00
7962;BME280;4026;43.652;24.906;2022-11-23T07:27:35;97880.91;;;8.09;100.00
7962;BME280;4026;43.652;24.906;2022-11-23T07:30:03;97887.41;;;8.02;100.00
7962;BME280;4026;43.652;24.906;2022-11-23T07:32:29;97886.41;;;8.14;100.00
7962;BME280;4026;43.652;24.906;2022-11-23T07:34:56;97882.44;;;8.21;100.00
7962;BME280;4026;43.652;24.906;2022-11-23T07:37:24;97875.72;;;8.20;100.00
7962;BME280;4026;43.652;24.906;2022-11-23T07:39:51;97877.34;;;8.21;100.00
7962;BME280;4026;43.652;24.906;2022-11-23T07:42:18;97879.56;;;8.35;100.00
7962;BME280;4026;43.652;24.906;2022-11-23T07:44:45;97888.47;;;8.41;100.00
7962;BME280;4026;43.652;24.906;2022-11-23T07:47:12;97895.34;;;8.50;100.00
7962;BME280;4026;43.652;24.906;2022-11-23T07:49:38;97893.78;;;8.38;100.00
7962;BME280;4026;43.652;24.906;2022-11-23T07:52:05;97898.69;;;8.51;100.00
7962;BME280;4026;43.652;24.906;2022-11-23T07:54:33;97909.97;;;8.58;100.00
7962;BME280;4026;43.652;24.906;2022-11-23T07:57:00;97907.03;;;8.53;100.00
7962;BME280;4026;43.652;24.906;2022-11-23T07:59:27;97898.19;;;8.57;100.00
7962;BME280;4026;43.652;24.906;2022-11-23T08:01:54;97905.88;;;8.67;100.00
7962;BME280;4026;43.652;24.906;2022-11-23T08:04:20;97913.56;;;8.76;100.00
7962;BME280;4026;43.652;24.906;2022-11-23T08:06:47;97916.78;;;8.78;100.00
7962;BME280;4026;43.652;24.906;2022-11-23T08:09:14;97916.28;;;8.84;100.00
7962;BME280;4026;43.652;24.906;2022-11-23T08:11:42;97909.19;;;8.88;100.00
7962;BME280;4026;43.652;24.906;2022-11-23T08:14:09;97916.66;;;8.80;100.00
7962;BME280;4026;43.652;24.906;2022-11-23T08:16:36;97931.84;;;8.81;100.00
7962;BME280;4026;43.652;24.906;2022-11-23T08:19:03;97918.47;;;8.99;100.00
7962;BME280;4026;43.652;24.906;2022-11-23T08:21:29;97922.75;;;8.98;100.00
7962;BME280;4026;43.652;24.906;2022-11-23T08:23:56;97917.00;;;9.06;100.00
7962;BME280;4026;43.652;24.906;2022-11-23T08:26:23;97934.06;;;9.15;100.00
7962;BME280;4026;43.652;24.906;2022-11-23T08:28:51;97929.66;;;9.17;100.00
7962;BME280;4026;43.652;24.906;2022-11-23T08:31:18;97928.06;;;9.16;100.00
7962;BME280;4026;43.652;24.906;2022-11-23T08:33:45;97929.50;;;9.09;100.00
7962;BME280;4026;43.652;24.906;2022-11-23T08:36:11;97933.25;;;9.05;100.00
7962;BME280;4026;43.652;24.906;2022-11-23T08:38:38;97922.00;;;9.17;100.00
7962;BME280;4026;43.652;24.906;2022-11-23T08:41:05;97935.44;;;9.19;100.00
7962;BME280;4026;43.652;24.906;2022-11-23T08:43:32;97923.88;;;9.15;100.00
7962;BME280;4026;43.652;24.906;2022-11-23T08:46:02;97915.44;;;9.24;100.00
7962;BME280;4026;43.652;24.906;2022-11-23T08:48:29;97910.75;;;9.39;100.00
7962;BME280;4026;43.652;24.906;2022-11-23T08:50:57;97897.63;;;9.44;100.00
7962;BME280;4026;43.652;24.906;2022-11-23T08:53:25;97899.22;;;9.25;100.00
7962;BME280;4026;43.652;24.906;2022-11-23T08:55:52;97906.50;;;9.40;100.00
7962;BME280;4026;43.652;24.906;2022-11-23T08:58:18;97921.28;;;9.46;100.00
7962;BME280;4026;43.652;24.906;2022-11-23T09:00:45;97923.53;;;9.39;100.00
7962;BME280;4026;43.652;24.906;2022-11-23T09:03:13;97921.91;;;9.48;100.00
7962;BME280;4026;43.652;24.906;2022-11-23T09:05:40;97922.34;;;9.53;100.00
7962;BME280;4026;43.652;24.906;2022-11-23T09:08:07;97924.47;;;9.48;100.00
7962;BME280;4026;43.652;24.906;2022-11-23T09:10:35;97920.19;;;9.48;100.00
7962;BME280;4026;43.652;24.906;2022-11-23T09:13:02;97921.78;;;9.40;100.00
7962;BME280;4026;43.652;24.906;2022-11-23T09:15:28;97925.00;;;9.32;100.00
7962;BME280;4026;43.652;24.906;2022-11-23T09:17:56;97921.91;;;9.48;100.00
7962;BME280;4026;43.652;24.906;2022-11-23T09:20:24;97913.19;;;9.31;100.00
7962;BME280;4026;43.652;24.906;2022-11-23T09:22:52;97915.59;;;9.42;100.00
7962;BME280;4026;43.652;24.906;2022-11-23T09:25:20;97917.50;;;9.50;100.00
7962;BME280;4026;43.652;24.906;2022-11-23T09:27:47;97920.47;;;9.45;100.00
7962;BME280;4026;43.652;24.906;2022-11-23T09:30:15;97915.91;;;9.49;100.00
7962;BME280;4026;43.652;24.906;2022-11-23T09:32:42;97915.47;;;9.44;100.00
7962;BME280;4026;43.652;24.906;2022-11-23T09:35:09;97923.69;;;9.57;100.00
7962;BME280;4026;43.652;24.906;2022-11-23T09:37:37;97922.75;;;9.48;100.00
7962;BME280;4026;43.652;24.906;2022-11-23T09:40:04;97909.47;;;9.55;100.00
7962;BME280;4026;43.652;24.906;2022-11-23T09:42:47;97913.09;;;9.52;100.00
7962;BME280;4026;43.652;24.906;2022-11-23T09:45:21;97918.34;;;9.60;100.00
7962;BME280;4026;43.652;24.906;2022-11-23T09:48:01;97919.41;;;9.58;100.00
7962;BME280;4026;43.652;24.906;2022-11-23T09:50:33;97914.81;;;9.61;100.00
7962;BME280;4026;43.652;24.906;2022-11-23T09:53:12;97907.31;;;9.69;100.00
7962;BME280;4026;43.652;24.906;2022-11-23T09:55:42;97904.88;;;9.58;100.00
7962;BME280;4026;43.652;24.906;2022-11-23T09:58:12;97904.63;;;9.51;100.00
7962;BME280;4026;43.652;24.906;2022-11-23T10:00:43;97889.69;;;9.47;100.00
7962;BME280;4026;43.652;24.906;2022-11-23T10:03:13;97891.44;;;9.46;100.00
7962;BME280;4026;43.652;24.906;2022-11-23T10:05:43;97883.25;;;9.43;100.00
7962;BME280;4026;43.652;24.906;2022-11-23T10:08:25;97882.59;;;9.50;100.00
7962;BME280;4026;43.652;24.906;2022-11-23T10:11:05;97876.53;;;9.32;100.00
7962;BME280;4026;43.652;24.906;2022-11-23T10:13:42;97868.09;;;9.32;100.00
7962;BME280;4026;43.652;24.906;2022-11-23T10:16:27;97860.84;;;9.37;100.00
7962;BME280;4026;43.652;24.906;2022-11-23T10:19:00;97867.28;;;9.41;100.00
7962;BME280;4026;43.652;24.906;2022-11-23T10:21:37;97865.53;;;9.41;100.00
7962;BME280;4026;43.652;24.906;2022-11-23T10:24:15;97858.41;;;9.25;100.00
7962;BME280;4026;43.652;24.906;2022-11-23T10:26:47;97857.34;;;9.38;100.00
7962;BME280;4026;43.652;24.906;2022-11-23T10:29:16;97855.75;;;9.37;100.00
7962;BME280;4026;43.652;24.906;2022-11-23T10:31:47;97865.13;;;9.36;100.00
7962;BME280;4026;43.652;24.906;2022-11-23T10:34:16;97867.25;;;9.21;100.00
7962;BME280;4026;43.652;24.906;2022-11-23T10:36:46;97862.94;;;9.22;100.00
7962;BME280;4026;43.652;24.906;2022-11-23T10:39:20;97864.81;;;9.10;100.00
7962;BME280;4026;43.652;24.906;2022-11-23T10:41:48;97868.56;;;9.16;100.00
7962;BME280;4026;43.652;24.906;2022-11-23T10:44:27;97872.06;;;9.15;100.00
7962;BME280;4026;43.652;24.906;2022-11-23T10:46:55;97873.66;;;9.06;100.00
7962;BME280;4026;43.652;24.906;2022-11-23T10:49:23;97869.00;;;9.11;100.00
7962;BME280;4026;43.652;24.906;2022-11-23T10:51:54;97869.91;;;9.10;100.00
7962;BME280;4026;43.652;24.906;2022-11-23T10:54:31;97872.34;;;9.12;100.00
7962;BME280;4026;43.652;24.906;2022-11-23T10:57:00;97873.94;;;9.03;100.00
7962;BME280;4026;43.652;24.906;2022-11-23T10:59:32;97887.63;;;9.02;100.00
7962;BME280;4026;43.652;24.906;2022-11-23T11:02:13;97888.38;;;8.93;100.00
7962;BME280;4026;43.652;24.906;2022-11-23T11:04:41;97900.63;;;8.99;100.00
7962;BME280;4026;43.652;24.906;2022-11-23T11:07:25;97896.19;;;9.01;100.00
7962;BME280;4026;43.652;24.906;2022-11-23T11:09:56;97898.31;;;8.96;100.00
7962;BME280;4026;43.652;24.906;2022-11-23T11:12:24;97891.16;;;8.80;100.00
7962;BME280;4026;43.652;24.906;2022-11-23T11:15:00;97895.91;;;8.84;100.00
7962;BME280;4026;43.652;24.906;2022-11-23T11:17:31;97899.09;;;8.87;100.00
7962;BME280;4026;43.652;24.906;2022-11-23T11:19:59;97899.63;;;8.80;100.00
7962;BME280;4026;43.652;24.906;2022-11-23T11:22:32;97886.63;;;8.83;100.00
7962;BME280;4026;43.652;24.906;2022-11-23T11:25:02;97882.47;;;8.82;100.00
7962;BME280;4026;43.652;24.906;2022-11-23T11:27:30;97889.75;;;8.97;100.00
7962;BME280;4026;43.652;24.906;2022-11-23T11:30:03;97889.22;;;9.03;100.00
7962;BME280;4026;43.652;24.906;2022-11-23T11:32:38;97894.06;;;9.16;100.00
7962;BME280;4026;43.652;24.906;2022-11-23T11:35:12;97890.88;;;9.14;100.00
7962;BME280;4026;43.652;24.906;2022-11-23T11:37:41;97886.56;;;9.14;100.00
7962;BME280;4026;43.652;24.906;2022-11-23T11:40:16;97892.47;;;9.15;100.00
7962;BME280;4026;43.652;24.906;2022-11-23T11:42:49;97894.66;;;9.19;100.00
7962;BME280;4026;43.652;24.906;2022-11-23T11:45:23;97882.84;;;9.38;100.00
7962;BME280;4026;43.652;24.906;2022-11-23T11:47:54;97888.06;;;9.26;100.00
7962;BME280;4026;43.652;24.906;2022-11-23T11:50:24;97886.31;;;9.17;100.00
7962;BME280;4026;43.652;24.906;2022-11-23T11:52:57;97877.81;;;9.07;100.00
7962;BME280;4026;43.652;24.906;2022-11-23T11:55:32;97871.00;;;9.17;100.00
7962;BME280;4026;43.652;24.906;2022-11-23T11:58:03;97870.22;;;9.26;100.00
7962;BME280;4026;43.652;24.906;2022-11-23T12:00:33;97881.75;;;9.21;100.00
7962;BME280;4026;43.652;24.906;2022-11-23T12:03:09;97878.25;;;9.12;100.00
7962;BME280;4026;43.652;24.906;2022-11-23T12:05:42;97872.88;;;9.15;100.00
7962;BME280;4026;43.652;24.906;2022-11-23T12:08:12;97868.06;;;9.22;100.00
7962;BME280;4026;43.652;24.906;2022-11-23T12:10:45;97873.31;;;9.40;100.00
7962;BME280;4026;43.652;24.906;2022-11-23T12:13:15;97870.78;;;9.40;100.00
7962;BME280;4026;43.652;24.906;2022-11-23T12:15:44;97845.94;;;9.61;100.00
7962;BME280;4026;43.652;24.906;2022-11-23T12:18:38;97848.75;;;9.78;100.00
7962;BME280;4026;43.652;24.906;2022-11-23T12:21:20;97859.47;;;9.71;100.00
7962;BME280;4026;43.652;24.906;2022-11-23T12:23:57;97862.47;;;9.57;100.00
7962;BME280;4026;43.652;24.906;2022-11-23T12:26:36;97869.97;;;9.49;100.00
7962;BME280;4026;43.652;24.906;2022-11-23T12:29:38;97853.31;;;9.64;100.00
7962;BME280;4026;43.652;24.906;2022-11-23T12:32:13;97847.53;;;9.62;100.00
7962;BME280;4026;43.652;24.906;2022-11-23T12:34:59;97850.59;;;9.85;100.00
7962;BME280;4026;43.652;24.906;2022-11-23T12:37:38;97862.56;;;9.85;100.00
7962;BME280;4026;43.652;24.906;2022-11-23T12:43:05;97872.13;;;9.44;100.00
7962;BME280;4026;43.652;24.906;2022-11-23T12:45:46;97877.22;;;9.44;100.00
7962;BME280;4026;43.652;24.906;2022-11-23T12:48:22;97880.03;;;9.41;100.00
7962;BME280;4026;43.652;24.906;2022-11-23T12:51:01;97878.81;;;9.35;100.00
7962;BME280;4026;43.652;24.906;2022-11-23T12:53:42;97876.94;;;9.47;100.00
7962;BME280;4026;43.652;24.906;2022-11-23T12:56:20;97858.97;;;9.58;100.00
7962;BME280;4026;43.652;24.906;2022-11-23T12:58:52;97871.44;;;9.61;100.00
7962;BME280;4026;43.652;24.906;2022-11-23T13:01:22;97860.56;;;9.40;100.00
7962;BME280;4026;43.652;24.906;2022-11-23T13:10:08;97865.53;;;9.32;100.00
7962;BME280;4026;43.652;24.906;2022-11-23T13:12:50;97871.16;;;9.25;100.00
7962;BME280;4026;43.652;24.906;2022-11-23T13:15:33;97868.63;;;9.35;100.00
7962;BME280;4026;43.652;24.906;2022-11-23T13:18:09;97872.09;;;9.24;100.00
7962;BME280;4026;43.652;24.906;2022-11-23T13:21:00;97867.25;;;9.21;100.00
7962;BME280;4026;43.652;24.906;2022-11-23T13:23:34;97869.66;;;9.13;100.00
7962;BME280;4026;43.652;24.906;2022-11-23T13:26:15;97864.81;;;9.10;100.00
7962;BME280;4026;43.652;24.906;2022-11-23T13:28:42;97869.91;;;9.10;100.00
7962;BME280;4026;43.652;24.906;2022-11-23T13:31:25;97875.44;;;9.15;100.00